createdAt,value
2022-10-28T00:05:23.771Z,94508.84
2022-10-28T00:15:30.176Z,94513.28
2022-10-28T00:25:36.414Z,94525.31
2022-10-28T00:35:42.693Z,94527.38
2022-10-28T00:45:49.071Z,94528.09
2022-10-28T00:55:55.669Z,94530.59
2022-10-28T01:06:02.703Z,94524.12
2022-10-28T01:16:39.115Z,94506.78
2022-10-28T01:27:22.727Z,94508.38
2022-10-28T01:37:36.293Z,94521.97
2022-10-28T01:47:48.599Z,94503.72
2022-10-28T01:57:56.354Z,94482.97
2022-10-28T02:08:12.729Z,94387.47
2022-10-28T02:18:28.520Z,94335.84
2022-10-28T02:28:49.447Z,94310.84
2022-10-28T02:38:57.395Z,94332.16
2022-10-28T02:49:09.498Z,94362.66
2022-10-28T02:59:15.753Z,94375.72
2022-10-28T03:09:22.059Z,94389.09
2022-10-28T03:19:28.353Z,94376.34
2022-10-28T03:29:34.626Z,94369.88
2022-10-28T03:39:40.867Z,94381.03
2022-10-28T03:49:47.298Z,94406.56
2022-10-28T03:59:53.577Z,94412.84
2022-10-28T04:09:59.830Z,94397.56
2022-10-28T04:20:06.503Z,94408.63
2022-10-28T04:30:14.190Z,94451.97
2022-10-28T04:40:20.476Z,94462.81
2022-10-28T04:50:26.764Z,94468.59
2022-10-28T05:00:33.024Z,94513.47
2022-10-28T05:10:39.308Z,94512.13
2022-10-28T05:20:45.934Z,94543.06
2022-10-28T05:30:52.195Z,94552.91
2022-10-28T05:40:58.477Z,94572.13
2022-10-28T05:51:04.794Z,94597.56
2022-10-28T06:01:11.287Z,94613.84
2022-10-28T06:11:15.143Z,94589.06
2022-10-28T06:21:21.417Z,94579.72
2022-10-28T06:31:27.679Z,94556.41
2022-10-28T06:41:34.507Z,94576.44
2022-10-28T06:51:42.321Z,94517.69
2022-10-28T07:01:48.695Z,94415.81
2022-10-28T07:11:55.447Z,94360.31
2022-10-28T07:22:02.299Z,94147.94
2022-10-28T07:32:08.554Z,93866.66
2022-10-28T07:42:14.854Z,93796.63
2022-10-28T07:52:21.926Z,93922.16
2022-10-28T08:02:28.265Z,94093.94
2022-10-28T08:12:34.554Z,94422.56
2022-10-28T08:22:40.852Z,94766.81
2022-10-28T08:32:47.147Z,94997.41
2022-10-28T08:42:58.122Z,95082.94
2022-10-28T08:53:15.313Z,95416.53
2022-10-28T09:03:28.107Z,95620.06
2022-10-28T09:14:12.053Z,95724.03
2022-10-28T09:24:25.530Z,95724.47
2022-10-28T09:34:45.510Z,95686.31
2022-10-28T09:44:56.189Z,95735.03
2022-10-28T09:55:08.736Z,95864.72
2022-10-28T10:05:17.306Z,95984.47
2022-10-28T10:15:39.464Z,96097.87
2022-10-28T10:25:45.772Z,96193.59
2022-10-28T10:36:00.188Z,96104.22
2022-10-28T10:56:28.030Z,96155.16
2022-10-28T11:06:38.230Z,96140.56
2022-10-28T11:16:50.457Z,96192.50
2022-10-28T11:26:59.740Z,96217.25
2022-10-28T11:37:44.214Z,96265.53
2022-10-28T11:48:12.049Z,96226.75
2022-10-28T11:58:45.813Z,96190.47
2022-10-28T12:09:14.173Z,96221.88
2022-10-28T12:19:28.919Z,96191.50
2022-10-28T12:29:39.579Z,96162.53
2022-10-28T12:39:51.229Z,96181.59
2022-10-28T12:50:09.488Z,96158.00
2022-10-28T13:00:25.418Z,96196.66
2022-10-28T13:11:13.205Z,96163.19
2022-10-28T13:21:40.630Z,96129.09
2022-10-28T13:31:47.585Z,96110.66
2022-10-28T13:42:16.002Z,96064.34
2022-10-28T13:52:22.640Z,96018.12
2022-10-28T14:02:36.269Z,96015.22
2022-10-28T14:12:46.059Z,95976.44
2022-10-28T14:22:52.387Z,95934.78
2022-10-28T14:33:01.837Z,95891.00
2022-10-28T14:43:31.063Z,95823.72
2022-10-28T14:53:37.766Z,95784.25
2022-10-28T15:03:45.570Z,95730.81
2022-10-28T15:13:55.062Z,95693.75
2022-10-28T15:24:08.094Z,95632.97
2022-10-28T15:34:22.270Z,95497.03
2022-10-28T15:44:40.919Z,95376.78
2022-10-28T15:55:01.403Z,95277.38
2022-10-28T16:05:33.593Z,95206.63
2022-10-28T16:15:54.362Z,95136.75
2022-10-28T16:26:00.615Z,95061.47
2022-10-28T16:36:07.104Z,94992.53
2022-10-28T16:46:14.490Z,94915.50
2022-10-28T16:56:20.809Z,94848.44
2022-10-28T17:06:27.101Z,94760.84
2022-10-28T17:16:33.358Z,94733.69
2022-10-28T17:26:39.684Z,94696.44
2022-10-28T17:36:45.957Z,94636.53
2022-10-28T17:46:52.700Z,94613.37
2022-10-28T17:56:58.964Z,94608.97
2022-10-28T18:07:05.210Z,94568.97
2022-10-28T18:17:15.008Z,94557.06
2022-10-28T18:27:21.287Z,94546.88
2022-10-28T18:37:29.554Z,94529.94
2022-10-28T18:47:36.154Z,94502.72
2022-10-28T18:57:42.428Z,94470.66
2022-10-28T19:07:48.752Z,94444.56
2022-10-28T19:17:55.348Z,94421.44
2022-10-28T19:28:01.997Z,94407.94
2022-10-28T19:38:08.280Z,94393.97
2022-10-28T19:48:15.164Z,94427.19
2022-10-28T19:58:21.424Z,94404.34
2022-10-28T20:08:27.696Z,94403.69
2022-10-28T20:18:34.630Z,94398.69
2022-10-28T20:28:41.227Z,94382.94
2022-10-28T20:38:47.522Z,94372.00
2022-10-28T20:48:57.652Z,94372.44
2022-10-28T20:59:05.126Z,94367.59
2022-10-28T21:09:12.900Z,94363.81
2022-10-28T21:19:19.220Z,94338.22
2022-10-28T21:29:25.518Z,94297.66
2022-10-28T21:39:31.766Z,94298.56
2022-10-28T21:49:38.024Z,94280.69
2022-10-28T21:59:44.358Z,94274.84
2022-10-28T22:09:50.668Z,94280.78
2022-10-28T22:19:56.929Z,94274.59
2022-10-28T22:30:03.205Z,94254.37
2022-10-28T22:40:09.927Z,94245.06
2022-10-28T22:50:16.221Z,94246.31
2022-10-28T23:00:22.559Z,94242.56
2022-10-28T23:10:29.227Z,94240.69
2022-10-28T23:20:36.112Z,94255.72
2022-10-28T23:30:42.363Z,94278.09
2022-10-28T23:40:55.975Z,94308.41
2022-10-28T23:51:02.247Z,94312.63
